sensor_id;sensor_type;location;lat;lon;timestamp;temperature;humidity
46159;DHT22;31888;44.512;26.104;2023-11-19T00:00:42;5.50;99.90
46159;DHT22;31888;44.512;26.104;2023-11-19T00:03:15;5.50;99.90
46159;DHT22;31888;44.512;26.104;2023-11-19T00:05:39;5.50;99.90
46159;DHT22;31888;44.512;26.104;2023-11-19T00:08:03;5.40;99.90
46159;DHT22;31888;44.512;26.104;2023-11-19T00:10:28;5.40;99.90
46159;DHT22;31888;44.512;26.104;2023-11-19T00:12:52;5.40;99.90
46159;DHT22;31888;44.512;26.104;2023-11-19T00:15:17;5.30;99.90
46159;DHT22;31888;44.512;26.104;2023-11-19T00:17:45;5.40;99.90
46159;DHT22;31888;44.512;26.104;2023-11-19T00:20:11;5.40;99.90
46159;DHT22;31888;44.512;26.104;2023-11-19T00:22:35;5.30;99.90
46159;DHT22;31888;44.512;26.104;2023-11-19T00:25:10;5.30;99.90
46159;DHT22;31888;44.512;26.104;2023-11-19T00:27:34;5.30;99.90
46159;DHT22;31888;44.512;26.104;2023-11-19T00:29:59;5.30;99.90
46159;DHT22;31888;44.512;26.104;2023-11-19T00:32:23;5.30;99.90
46159;DHT22;31888;44.512;26.104;2023-11-19T00:34:49;5.30;99.90
46159;DHT22;31888;44.512;26.104;2023-11-19T00:37:12;5.30;99.90
46159;DHT22;31888;44.512;26.104;2023-11-19T00:39:40;5.30;99.90
46159;DHT22;31888;44.512;26.104;2023-11-19T00:42:04;5.30;99.90
46159;DHT22;31888;44.512;26.104;2023-11-19T00:44:28;5.30;99.90
46159;DHT22;31888;44.512;26.104;2023-11-19T00:46:52;5.30;99.90
46159;DHT22;31888;44.512;26.104;2023-11-19T00:49:16;5.40;99.90
46159;DHT22;31888;44.512;26.104;2023-11-19T00:51:41;5.30;99.90
46159;DHT22;31888;44.512;26.104;2023-11-19T00:54:05;5.40;99.90
46159;DHT22;31888;44.512;26.104;2023-11-19T00:56:29;5.40;99.90
46159;DHT22;31888;44.512;26.104;2023-11-19T00:58:53;5.40;99.90
46159;DHT22;31888;44.512;26.104;2023-11-19T01:01:18;5.40;99.90
46159;DHT22;31888;44.512;26.104;2023-11-19T01:03:42;5.50;99.90
46159;DHT22;31888;44.512;26.104;2023-11-19T01:06:07;5.40;99.90
46159;DHT22;31888;44.512;26.104;2023-11-19T01:08:33;5.50;99.90
46159;DHT22;31888;44.512;26.104;2023-11-19T01:10:58;5.40;99.90
46159;DHT22;31888;44.512;26.104;2023-11-19T01:13:22;5.50;99.90
46159;DHT22;31888;44.512;26.104;2023-11-19T01:15:47;5.40;99.90
46159;DHT22;31888;44.512;26.104;2023-11-19T01:18:11;5.40;99.90
46159;DHT22;31888;44.512;26.104;2023-11-19T01:20:36;5.50;99.90
46159;DHT22;31888;44.512;26.104;2023-11-19T01:23:00;5.40;99.90
46159;DHT22;31888;44.512;26.104;2023-11-19T01:25:27;5.40;99.90
46159;DHT22;31888;44.512;26.104;2023-11-19T01:27:51;5.40;99.90
46159;DHT22;31888;44.512;26.104;2023-11-19T01:30:15;5.40;99.90
46159;DHT22;31888;44.512;26.104;2023-11-19T01:32:39;5.40;99.90
46159;DHT22;31888;44.512;26.104;2023-11-19T01:35:04;5.40;99.90
46159;DHT22;31888;44.512;26.104;2023-11-19T01:37:32;5.40;99.90
46159;DHT22;31888;44.512;26.104;2023-11-19T01:39:57;5.40;99.90
46159;DHT22;31888;44.512;26.104;2023-11-19T01:42:22;5.30;99.90
46159;DHT22;31888;44.512;26.104;2023-11-19T01:44:57;5.30;99.90
46159;DHT22;31888;44.512;26.104;2023-11-19T01:47:22;5.30;99.90
46159;DHT22;31888;44.512;26.104;2023-11-19T01:49:46;5.20;99.90
46159;DHT22;31888;44.512;26.104;2023-11-19T01:52:10;5.10;99.90
46159;DHT22;31888;44.512;26.104;2023-11-19T01:54:35;5.10;99.90
46159;DHT22;31888;44.512;26.104;2023-11-19T01:56:59;5.00;99.90
46159;DHT22;31888;44.512;26.104;2023-11-19T01:59:25;4.90;99.90
46159;DHT22;31888;44.512;26.104;2023-11-19T02:01:50;4.90;99.90
46159;DHT22;31888;44.512;26.104;2023-11-19T02:04:22;4.80;99.90
46159;DHT22;31888;44.512;26.104;2023-11-19T02:06:48;4.70;99.90
46159;DHT22;31888;44.512;26.104;2023-11-19T02:09:12;4.60;99.90
46159;DHT22;31888;44.512;26.104;2023-11-19T02:11:36;4.60;99.90
46159;DHT22;31888;44.512;26.104;2023-11-19T02:14:00;4.50;99.90
46159;DHT22;31888;44.512;26.104;2023-11-19T02:16:27;4.50;99.90
46159;DHT22;31888;44.512;26.104;2023-11-19T02:18:51;4.50;99.90
46159;DHT22;31888;44.512;26.104;2023-11-19T02:21:15;4.40;99.90
46159;DHT22;31888;44.512;26.104;2023-11-19T02:23:40;4.40;99.90
46159;DHT22;31888;44.512;26.104;2023-11-19T02:26:12;4.40;99.90
46159;DHT22;31888;44.512;26.104;2023-11-19T02:28:39;4.40;99.90
46159;DHT22;31888;44.512;26.104;2023-11-19T02:31:03;4.30;99.90
46159;DHT22;31888;44.512;26.104;2023-11-19T02:33:32;4.40;99.90
46159;DHT22;31888;44.512;26.104;2023-11-19T02:35:56;4.40;99.90
46159;DHT22;31888;44.512;26.104;2023-11-19T02:38:20;4.30;99.90
46159;DHT22;31888;44.512;26.104;2023-11-19T02:40:44;4.30;99.90
46159;DHT22;31888;44.512;26.104;2023-11-19T02:43:08;4.30;99.90
46159;DHT22;31888;44.512;26.104;2023-11-19T02:45:34;4.30;99.90
46159;DHT22;31888;44.512;26.104;2023-11-19T02:47:58;4.20;99.90
46159;DHT22;31888;44.512;26.104;2023-11-19T02:50:24;4.20;99.90
46159;DHT22;31888;44.512;26.104;2023-11-19T02:52:48;4.20;99.90
46159;DHT22;31888;44.512;26.104;2023-11-19T02:55:13;4.20;99.90
46159;DHT22;31888;44.512;26.104;2023-11-19T02:57:36;4.10;99.90
46159;DHT22;31888;44.512;26.104;2023-11-19T03:00:01;4.10;99.90
46159;DHT22;31888;44.512;26.104;2023-11-19T03:02:35;4.10;99.90
46159;DHT22;31888;44.512;26.104;2023-11-19T03:05:07;4.10;99.90
46159;DHT22;31888;44.512;26.104;2023-11-19T03:07:31;4.20;99.90
46159;DHT22;31888;44.512;26.104;2023-11-19T03:09:55;4.20;99.90
46159;DHT22;31888;44.512;26.104;2023-11-19T03:12:19;4.20;99.90
46159;DHT22;31888;44.512;26.104;2023-11-19T03:14:43;4.20;99.90
46159;DHT22;31888;44.512;26.104;2023-11-19T03:17:07;4.20;99.90
46159;DHT22;31888;44.512;26.104;2023-11-19T03:19:33;4.20;99.90
46159;DHT22;31888;44.512;26.104;2023-11-19T03:21:57;4.20;99.90
46159;DHT22;31888;44.512;26.104;2023-11-19T03:24:22;4.20;99.90
46159;DHT22;31888;44.512;26.104;2023-11-19T03:26:48;4.10;99.90
46159;DHT22;31888;44.512;26.104;2023-11-19T03:29:12;4.00;99.90
46159;DHT22;31888;44.512;26.104;2023-11-19T03:31:36;3.80;99.90
46159;DHT22;31888;44.512;26.104;2023-11-19T03:34:05;3.70;99.90
46159;DHT22;31888;44.512;26.104;2023-11-19T03:36:33;3.60;99.90
46159;DHT22;31888;44.512;26.104;2023-11-19T03:38:57;3.60;99.90
46159;DHT22;31888;44.512;26.104;2023-11-19T03:41:21;3.50;99.90
46159;DHT22;31888;44.512;26.104;2023-11-19T03:43:45;3.50;99.90
46159;DHT22;31888;44.512;26.104;2023-11-19T03:46:17;3.50;99.90
46159;DHT22;31888;44.512;26.104;2023-11-19T03:48:41;3.50;99.90
46159;DHT22;31888;44.512;26.104;2023-11-19T03:51:06;3.40;99.90
46159;DHT22;31888;44.512;26.104;2023-11-19T03:53:31;3.30;99.90
46159;DHT22;31888;44.512;26.104;2023-11-19T03:55:55;3.30;99.90
46159;DHT22;31888;44.512;26.104;2023-11-19T03:58:19;3.20;99.90
46159;DHT22;31888;44.512;26.104;2023-11-19T04:00:43;3.20;99.90
46159;DHT22;31888;44.512;26.104;2023-11-19T04:03:07;3.20;99.90
46159;DHT22;31888;44.512;26.104;2023-11-19T04:05:32;3.30;99.90
46159;DHT22;31888;44.512;26.104;2023-11-19T04:07:56;3.30;99.90
46159;DHT22;31888;44.512;26.104;2023-11-19T04:10:21;3.30;99.90
46159;DHT22;31888;44.512;26.104;2023-11-19T04:12:45;3.30;99.90
46159;DHT22;31888;44.512;26.104;2023-11-19T04:15:10;3.40;99.90
46159;DHT22;31888;44.512;26.104;2023-11-19T04:17:35;3.40;99.90
46159;DHT22;31888;44.512;26.104;2023-11-19T04:19:59;3.40;99.90
46159;DHT22;31888;44.512;26.104;2023-11-19T04:22:23;3.50;99.90
46159;DHT22;31888;44.512;26.104;2023-11-19T04:24:47;3.50;99.90
46159;DHT22;31888;44.512;26.104;2023-11-19T04:27:12;3.50;99.90
46159;DHT22;31888;44.512;26.104;2023-11-19T04:29:37;3.50;99.90
46159;DHT22;31888;44.512;26.104;2023-11-19T04:32:01;3.50;99.90
46159;DHT22;31888;44.512;26.104;2023-11-19T04:34:25;3.60;99.90
46159;DHT22;31888;44.512;26.104;2023-11-19T04:36:49;3.70;99.90
46159;DHT22;31888;44.512;26.104;2023-11-19T04:39:12;3.70;99.90
46159;DHT22;31888;44.512;26.104;2023-11-19T04:41:46;3.70;99.90
46159;DHT22;31888;44.512;26.104;2023-11-19T04:44:12;3.70;99.90
46159;DHT22;31888;44.512;26.104;2023-11-19T04:46:36;3.70;99.90
46159;DHT22;31888;44.512;26.104;2023-11-19T04:49:00;3.70;99.90
46159;DHT22;31888;44.512;26.104;2023-11-19T04:51:25;3.70;99.90
46159;DHT22;31888;44.512;26.104;2023-11-19T04:53:49;3.70;99.90
46159;DHT22;31888;44.512;26.104;2023-11-19T04:56:13;3.80;99.90
46159;DHT22;31888;44.512;26.104;2023-11-19T04:58:38;3.80;99.90
46159;DHT22;31888;44.512;26.104;2023-11-19T05:01:03;3.80;99.90
46159;DHT22;31888;44.512;26.104;2023-11-19T05:03:28;3.80;99.90
46159;DHT22;31888;44.512;26.104;2023-11-19T05:05:51;3.90;99.90
46159;DHT22;31888;44.512;26.104;2023-11-19T05:08:16;3.90;99.90
46159;DHT22;31888;44.512;26.104;2023-11-19T05:10:40;3.80;99.90
46159;DHT22;31888;44.512;26.104;2023-11-19T05:13:04;3.70;99.90
46159;DHT22;31888;44.512;26.104;2023-11-19T05:15:28;3.70;99.90
46159;DHT22;31888;44.512;26.104;2023-11-19T05:17:53;3.60;99.90
46159;DHT22;31888;44.512;26.104;2023-11-19T05:20:17;3.70;99.90
46159;DHT22;31888;44.512;26.104;2023-11-19T05:22:41;3.70;99.90
46159;DHT22;31888;44.512;26.104;2023-11-19T05:25:06;3.70;99.90
46159;DHT22;31888;44.512;26.104;2023-11-19T05:27:31;3.70;99.90
46159;DHT22;31888;44.512;26.104;2023-11-19T05:29:55;3.70;99.90
46159;DHT22;31888;44.512;26.104;2023-11-19T05:32:19;3.70;99.90
46159;DHT22;31888;44.512;26.104;2023-11-19T05:34:44;3.80;99.90
46159;DHT22;31888;44.512;26.104;2023-11-19T05:37:11;3.80;99.90
46159;DHT22;31888;44.512;26.104;2023-11-19T05:39:35;3.80;99.90
46159;DHT22;31888;44.512;26.104;2023-11-19T05:41:59;3.80;99.90
46159;DHT22;31888;44.512;26.104;2023-11-19T05:44:23;3.90;99.90
46159;DHT22;31888;44.512;26.104;2023-11-19T05:46:47;3.90;99.90
46159;DHT22;31888;44.512;26.104;2023-11-19T05:49:11;4.00;99.90
46159;DHT22;31888;44.512;26.104;2023-11-19T05:51:38;4.10;99.90
46159;DHT22;31888;44.512;26.104;2023-11-19T05:54:02;4.30;99.90
46159;DHT22;31888;44.512;26.104;2023-11-19T05:56:27;4.40;99.90
46159;DHT22;31888;44.512;26.104;2023-11-19T05:58:54;4.90;99.90
46159;DHT22;31888;44.512;26.104;2023-11-19T06:01:18;5.30;99.90
46159;DHT22;31888;44.512;26.104;2023-11-19T06:03:42;5.50;99.90
46159;DHT22;31888;44.512;26.104;2023-11-19T06:06:13;5.80;99.90
46159;DHT22;31888;44.512;26.104;2023-11-19T06:08:38;6.30;99.90
46159;DHT22;31888;44.512;26.104;2023-11-19T06:11:02;6.50;99.90
46159;DHT22;31888;44.512;26.104;2023-11-19T06:13:26;7.00;99.90
46159;DHT22;31888;44.512;26.104;2023-11-19T06:15:50;7.40;99.90
46159;DHT22;31888;44.512;26.104;2023-11-19T06:18:14;8.00;99.90
46159;DHT22;31888;44.512;26.104;2023-11-19T06:20:38;8.50;99.90
46159;DHT22;31888;44.512;26.104;2023-11-19T06:23:05;9.10;99.90
46159;DHT22;31888;44.512;26.104;2023-11-19T06:25:30;9.70;99.50
46159;DHT22;31888;44.512;26.104;2023-11-19T06:27:55;10.60;98.60
46159;DHT22;31888;44.512;26.104;2023-11-19T06:30:20;11.60;96.20
46159;DHT22;31888;44.512;26.104;2023-11-19T06:32:44;12.30;94.40
46159;DHT22;31888;44.512;26.104;2023-11-19T06:35:08;13.30;93.20
46159;DHT22;31888;44.512;26.104;2023-11-19T06:37:32;13.80;90.30
46159;DHT22;31888;44.512;26.104;2023-11-19T06:39:56;13.80;88.10
46159;DHT22;31888;44.512;26.104;2023-11-19T06:42:21;12.80;89.30
46159;DHT22;31888;44.512;26.104;2023-11-19T06:44:45;13.30;89.00
46159;DHT22;31888;44.512;26.104;2023-11-19T06:47:09;13.20;87.80
46159;DHT22;31888;44.512;26.104;2023-11-19T06:49:33;13.20;86.90
46159;DHT22;31888;44.512;26.104;2023-11-19T06:51:58;13.50;87.50
46159;DHT22;31888;44.512;26.104;2023-11-19T06:54:22;14.20;86.30
46159;DHT22;31888;44.512;26.104;2023-11-19T06:56:45;14.70;85.30
46159;DHT22;31888;44.512;26.104;2023-11-19T06:59:11;15.20;82.20
46159;DHT22;31888;44.512;26.104;2023-11-19T07:01:35;15.50;81.20
46159;DHT22;31888;44.512;26.104;2023-11-19T07:04:00;15.90;79.50
46159;DHT22;31888;44.512;26.104;2023-11-19T07:06:30;16.70;77.50
46159;DHT22;31888;44.512;26.104;2023-11-19T07:08:56;17.80;74.50
46159;DHT22;31888;44.512;26.104;2023-11-19T07:11:20;18.30;72.60
46159;DHT22;31888;44.512;26.104;2023-11-19T07:13:47;19.00;71.30
46159;DHT22;31888;44.512;26.104;2023-11-19T07:16:15;18.80;70.60
46159;DHT22;31888;44.512;26.104;2023-11-19T07:18:42;18.10;72.00
46159;DHT22;31888;44.512;26.104;2023-11-19T07:21:07;17.60;73.00
46159;DHT22;31888;44.512;26.104;2023-11-19T07:23:33;18.40;71.40
46159;DHT22;31888;44.512;26.104;2023-11-19T07:25:57;18.60;70.30
46159;DHT22;31888;44.512;26.104;2023-11-19T07:28:21;18.40;70.30
46159;DHT22;31888;44.512;26.104;2023-11-19T07:30:45;18.00;70.40
46159;DHT22;31888;44.512;26.104;2023-11-19T07:33:13;17.70;71.50
46159;DHT22;31888;44.512;26.104;2023-11-19T07:35:37;17.50;71.10
46159;DHT22;31888;44.512;26.104;2023-11-19T07:38:01;17.30;71.70
46159;DHT22;31888;44.512;26.104;2023-11-19T07:40:25;17.80;69.70
46159;DHT22;31888;44.512;26.104;2023-11-19T07:42:50;18.60;69.00
46159;DHT22;31888;44.512;26.104;2023-11-19T07:45:15;19.60;68.50
46159;DHT22;31888;44.512;26.104;2023-11-19T07:47:39;20.50;66.30
46159;DHT22;31888;44.512;26.104;2023-11-19T07:50:06;21.10;65.80
46159;DHT22;31888;44.512;26.104;2023-11-19T07:52:30;22.30;64.50
46159;DHT22;31888;44.512;26.104;2023-11-19T07:54:54;22.70;63.80
46159;DHT22;31888;44.512;26.104;2023-11-19T07:57:17;23.70;61.60
46159;DHT22;31888;44.512;26.104;2023-11-19T07:59:42;23.90;59.20
46159;DHT22;31888;44.512;26.104;2023-11-19T08:02:06;24.60;58.70
46159;DHT22;31888;44.512;26.104;2023-11-19T08:04:30;25.00;58.20
46159;DHT22;31888;44.512;26.104;2023-11-19T08:06:55;24.80;58.30
46159;DHT22;31888;44.512;26.104;2023-11-19T08:09:19;24.70;58.70
46159;DHT22;31888;44.512;26.104;2023-11-19T08:11:44;25.70;57.70
46159;DHT22;31888;44.512;26.104;2023-11-19T08:14:08;26.50;56.10
46159;DHT22;31888;44.512;26.104;2023-11-19T08:16:32;26.20;55.10
46159;DHT22;31888;44.512;26.104;2023-11-19T08:18:56;25.60;55.60
46159;DHT22;31888;44.512;26.104;2023-11-19T08:21:20;26.20;54.60
46159;DHT22;31888;44.512;26.104;2023-11-19T08:23:46;26.40;53.90
46159;DHT22;31888;44.512;26.104;2023-11-19T08:26:10;26.60;54.60
46159;DHT22;31888;44.512;26.104;2023-11-19T08:28:34;26.90;55.20
46159;DHT22;31888;44.512;26.104;2023-11-19T08:30:58;27.10;55.70
46159;DHT22;31888;44.512;26.104;2023-11-19T08:33:22;27.30;54.30
46159;DHT22;31888;44.512;26.104;2023-11-19T08:35:49;27.20;54.20
46159;DHT22;31888;44.512;26.104;2023-11-19T08:38:13;27.00;53.30
46159;DHT22;31888;44.512;26.104;2023-11-19T08:40:54;28.80;51.60
46159;DHT22;31888;44.512;26.104;2023-11-19T08:43:22;28.40;50.70
46159;DHT22;31888;44.512;26.104;2023-11-19T08:45:46;27.70;52.00
46159;DHT22;31888;44.512;26.104;2023-11-19T08:48:10;26.70;52.70
46159;DHT22;31888;44.512;26.104;2023-11-19T08:50:34;24.50;54.40
46159;DHT22;31888;44.512;26.104;2023-11-19T08:52:58;24.00;55.40
46159;DHT22;31888;44.512;26.104;2023-11-19T08:55:22;25.90;55.00
46159;DHT22;31888;44.512;26.104;2023-11-19T08:57:47;27.00;53.40
46159;DHT22;31888;44.512;26.104;2023-11-19T09:00:12;27.10;52.80
46159;DHT22;31888;44.512;26.104;2023-11-19T09:02:37;28.30;51.70
46159;DHT22;31888;44.512;26.104;2023-11-19T09:05:01;29.20;50.40
46159;DHT22;31888;44.512;26.104;2023-11-19T09:07:25;29.40;50.30
46159;DHT22;31888;44.512;26.104;2023-11-19T09:09:50;28.20;50.50
46159;DHT22;31888;44.512;26.104;2023-11-19T09:12:15;26.50;52.80
46159;DHT22;31888;44.512;26.104;2023-11-19T09:14:41;26.10;51.60
46159;DHT22;31888;44.512;26.104;2023-11-19T09:17:05;25.20;53.60
46159;DHT22;31888;44.512;26.104;2023-11-19T09:19:32;26.80;52.30
46159;DHT22;31888;44.512;26.104;2023-11-19T09:22:06;29.20;50.00
46159;DHT22;31888;44.512;26.104;2023-11-19T09:24:30;30.00;48.30
46159;DHT22;31888;44.512;26.104;2023-11-19T09:26:54;30.60;48.00
46159;DHT22;31888;44.512;26.104;2023-11-19T09:29:19;32.00;45.60
46159;DHT22;31888;44.512;26.104;2023-11-19T09:31:46;30.40;45.10
46159;DHT22;31888;44.512;26.104;2023-11-19T09:34:13;28.70;46.10
46159;DHT22;31888;44.512;26.104;2023-11-19T09:36:37;29.80;48.50
46159;DHT22;31888;44.512;26.104;2023-11-19T09:39:06;32.80;45.50
46159;DHT22;31888;44.512;26.104;2023-11-19T09:41:31;35.20;43.80
46159;DHT22;31888;44.512;26.104;2023-11-19T09:43:57;33.60;43.00
46159;DHT22;31888;44.512;26.104;2023-11-19T09:46:22;33.10;44.70
46159;DHT22;31888;44.512;26.104;2023-11-19T09:48:49;32.00;44.10
46159;DHT22;31888;44.512;26.104;2023-11-19T09:51:17;31.90;43.90
46159;DHT22;31888;44.512;26.104;2023-11-19T09:53:41;32.10;43.00
46159;DHT22;31888;44.512;26.104;2023-11-19T09:56:06;31.30;42.80
46159;DHT22;31888;44.512;26.104;2023-11-19T09:58:33;30.50;43.10
46159;DHT22;31888;44.512;26.104;2023-11-19T10:00:57;30.70;43.70
46159;DHT22;31888;44.512;26.104;2023-11-19T10:03:42;31.40;43.20
46159;DHT22;31888;44.512;26.104;2023-11-19T10:06:09;31.40;43.00
46159;DHT22;31888;44.512;26.104;2023-11-19T10:08:33;30.80;42.90
46159;DHT22;31888;44.512;26.104;2023-11-19T10:10:58;30.60;42.60
46159;DHT22;31888;44.512;26.104;2023-11-19T10:13:26;30.60;42.70
46159;DHT22;31888;44.512;26.104;2023-11-19T10:15:55;31.20;42.10
46159;DHT22;31888;44.512;26.104;2023-11-19T10:18:24;30.30;43.40
46159;DHT22;31888;44.512;26.104;2023-11-19T10:20:49;30.90;42.70
46159;DHT22;31888;44.512;26.104;2023-11-19T10:23:15;30.90;41.30
46159;DHT22;31888;44.512;26.104;2023-11-19T10:25:40;29.90;41.50
46159;DHT22;31888;44.512;26.104;2023-11-19T10:28:15;30.10;40.60
46159;DHT22;31888;44.512;26.104;2023-11-19T10:30:41;24.20;43.80
46159;DHT22;31888;44.512;26.104;2023-11-19T10:33:06;20.40;49.40
46159;DHT22;31888;44.512;26.104;2023-11-19T10:35:31;17.70;54.10
46159;DHT22;31888;44.512;26.104;2023-11-19T10:37:55;16.20;57.20
46159;DHT22;31888;44.512;26.104;2023-11-19T10:40:20;14.80;59.50
46159;DHT22;31888;44.512;26.104;2023-11-19T10:42:47;14.10;61.30
46159;DHT22;31888;44.512;26.104;2023-11-19T10:45:22;13.50;62.40
46159;DHT22;31888;44.512;26.104;2023-11-19T10:47:47;13.20;63.30
46159;DHT22;31888;44.512;26.104;2023-11-19T10:50:11;12.90;63.70
46159;DHT22;31888;44.512;26.104;2023-11-19T10:52:37;12.60;64.70
46159;DHT22;31888;44.512;26.104;2023-11-19T10:55:03;12.40;64.80
46159;DHT22;31888;44.512;26.104;2023-11-19T10:57:32;12.20;65.30
46159;DHT22;31888;44.512;26.104;2023-11-19T11:00:02;12.00;65.60
46159;DHT22;31888;44.512;26.104;2023-11-19T11:02:43;12.00;66.70
46159;DHT22;31888;44.512;26.104;2023-11-19T11:05:09;11.90;67.40
46159;DHT22;31888;44.512;26.104;2023-11-19T11:07:35;11.80;68.20
46159;DHT22;31888;44.512;26.104;2023-11-19T11:10:03;11.70;66.90
46159;DHT22;31888;44.512;26.104;2023-11-19T11:12:32;11.70;66.70
46159;DHT22;31888;44.512;26.104;2023-11-19T11:15:00;11.70;67.00
46159;DHT22;31888;44.512;26.104;2023-11-19T11:17:25;11.60;68.00
46159;DHT22;31888;44.512;26.104;2023-11-19T11:19:52;11.50;67.70
46159;DHT22;31888;44.512;26.104;2023-11-19T11:22:16;11.50;68.10
46159;DHT22;31888;44.512;26.104;2023-11-19T11:25:11;11.40;67.90
46159;DHT22;31888;44.512;26.104;2023-11-19T11:28:02;11.60;68.90
46159;DHT22;31888;44.512;26.104;2023-11-19T11:30:39;11.50;68.60
46159;DHT22;31888;44.512;26.104;2023-11-19T11:33:22;11.40;68.40
46159;DHT22;31888;44.512;26.104;2023-11-19T11:35:53;11.50;71.60
46159;DHT22;31888;44.512;26.104;2023-11-19T11:38:22;11.70;68.60
46159;DHT22;31888;44.512;26.104;2023-11-19T11:41:18;11.70;69.00
46159;DHT22;31888;44.512;26.104;2023-11-19T11:43:52;11.80;69.00
46159;DHT22;31888;44.512;26.104;2023-11-19T11:46:55;11.70;68.80
46159;DHT22;31888;44.512;26.104;2023-11-19T11:49:25;11.70;68.30
46159;DHT22;31888;44.512;26.104;2023-11-19T11:52:00;11.70;70.00
46159;DHT22;31888;44.512;26.104;2023-11-19T11:54:28;11.80;68.90
46159;DHT22;31888;44.512;26.104;2023-11-19T11:57:06;11.80;68.80
46159;DHT22;31888;44.512;26.104;2023-11-19T11:59:43;11.80;70.50
46159;DHT22;31888;44.512;26.104;2023-11-19T12:02:09;11.90;69.50
46159;DHT22;31888;44.512;26.104;2023-11-19T12:04:34;11.90;69.60
46159;DHT22;31888;44.512;26.104;2023-11-19T12:07:05;11.80;68.90
46159;DHT22;31888;44.512;26.104;2023-11-19T12:09:29;11.70;69.00
46159;DHT22;31888;44.512;26.104;2023-11-19T12:12:07;11.50;68.90
46159;DHT22;31888;44.512;26.104;2023-11-19T12:15:04;11.40;69.60
46159;DHT22;31888;44.512;26.104;2023-11-19T12:17:43;11.30;70.80
46159;DHT22;31888;44.512;26.104;2023-11-19T12:20:13;11.30;72.90
46159;DHT22;31888;44.512;26.104;2023-11-19T12:22:55;11.20;73.30
46159;DHT22;31888;44.512;26.104;2023-11-19T12:25:20;11.20;72.40
46159;DHT22;31888;44.512;26.104;2023-11-19T12:27:48;11.10;72.70
46159;DHT22;31888;44.512;26.104;2023-11-19T12:30:17;11.10;73.30
46159;DHT22;31888;44.512;26.104;2023-11-19T12:32:42;11.10;73.10
46159;DHT22;31888;44.512;26.104;2023-11-19T12:35:07;11.10;73.50
46159;DHT22;31888;44.512;26.104;2023-11-19T12:37:34;11.10;73.40
46159;DHT22;31888;44.512;26.104;2023-11-19T12:40:02;11.10;73.20
46159;DHT22;31888;44.512;26.104;2023-11-19T12:42:37;11.10;73.60
46159;DHT22;31888;44.512;26.104;2023-11-19T12:45:01;11.10;73.70
46159;DHT22;31888;44.512;26.104;2023-11-19T12:47:26;11.10;72.90
46159;DHT22;31888;44.512;26.104;2023-11-19T12:49:55;11.00;72.90
46159;DHT22;31888;44.512;26.104;2023-11-19T12:52:19;11.00;72.60
46159;DHT22;31888;44.512;26.104;2023-11-19T12:54:45;11.00;72.90
46159;DHT22;31888;44.512;26.104;2023-11-19T12:57:09;11.00;72.30
46159;DHT22;31888;44.512;26.104;2023-11-19T12:59:32;11.00;72.60
46159;DHT22;31888;44.512;26.104;2023-11-19T13:01:57;11.00;73.30
46159;DHT22;31888;44.512;26.104;2023-11-19T13:04:23;11.00;73.10
46159;DHT22;31888;44.512;26.104;2023-11-19T13:06:48;10.90;73.40
46159;DHT22;31888;44.512;26.104;2023-11-19T13:09:24;10.80;73.10
46159;DHT22;31888;44.512;26.104;2023-11-19T13:11:49;10.70;74.40
46159;DHT22;31888;44.512;26.104;2023-11-19T13:14:15;10.60;75.00
46159;DHT22;31888;44.512;26.104;2023-11-19T13:16:39;10.50;75.10
46159;DHT22;31888;44.512;26.104;2023-11-19T13:19:05;10.50;75.10
46159;DHT22;31888;44.512;26.104;2023-11-19T13:21:30;10.40;75.30
46159;DHT22;31888;44.512;26.104;2023-11-19T13:23:55;10.40;75.60
46159;DHT22;31888;44.512;26.104;2023-11-19T13:26:19;10.30;75.90
46159;DHT22;31888;44.512;26.104;2023-11-19T13:28:43;10.30;75.90
46159;DHT22;31888;44.512;26.104;2023-11-19T13:31:07;10.30;76.20
46159;DHT22;31888;44.512;26.104;2023-11-19T13:33:33;10.20;76.30
46159;DHT22;31888;44.512;26.104;2023-11-19T13:35:57;10.20;76.70
46159;DHT22;31888;44.512;26.104;2023-11-19T13:38:23;10.20;77.40
46159;DHT22;31888;44.512;26.104;2023-11-19T13:40:47;10.10;77.50
46159;DHT22;31888;44.512;26.104;2023-11-19T13:43:11;10.00;78.10
46159;DHT22;31888;44.512;26.104;2023-11-19T13:45:35;10.00;79.40
46159;DHT22;31888;44.512;26.104;2023-11-19T13:48:00;9.90;79.30
46159;DHT22;31888;44.512;26.104;2023-11-19T13:50:24;9.90;80.00
46159;DHT22;31888;44.512;26.104;2023-11-19T13:52:48;9.80;81.30
46159;DHT22;31888;44.512;26.104;2023-11-19T13:55:14;9.70;82.50
46159;DHT22;31888;44.512;26.104;2023-11-19T13:57:39;9.70;84.20
46159;DHT22;31888;44.512;26.104;2023-11-19T14:00:05;9.60;85.30
46159;DHT22;31888;44.512;26.104;2023-11-19T14:02:30;9.60;86.40
46159;DHT22;31888;44.512;26.104;2023-11-19T14:04:55;9.60;87.50
46159;DHT22;31888;44.512;26.104;2023-11-19T14:07:19;9.50;87.90
46159;DHT22;31888;44.512;26.104;2023-11-19T14:09:45;9.40;88.60
46159;DHT22;31888;44.512;26.104;2023-11-19T14:12:12;9.40;90.00
46159;DHT22;31888;44.512;26.104;2023-11-19T14:14:36;9.40;90.00
46159;DHT22;31888;44.512;26.104;2023-11-19T14:17:02;9.30;90.30
46159;DHT22;31888;44.512;26.104;2023-11-19T14:19:29;9.30;90.80
46159;DHT22;31888;44.512;26.104;2023-11-19T14:21:57;9.20;91.00
46159;DHT22;31888;44.512;26.104;2023-11-19T14:24:22;9.10;90.80
46159;DHT22;31888;44.512;26.104;2023-11-19T14:26:47;9.00;91.00
46159;DHT22;31888;44.512;26.104;2023-11-19T14:29:14;8.90;91.40
46159;DHT22;31888;44.512;26.104;2023-11-19T14:31:38;8.90;91.80
46159;DHT22;31888;44.512;26.104;2023-11-19T14:34:03;8.80;92.30
46159;DHT22;31888;44.512;26.104;2023-11-19T14:36:27;8.70;92.70
46159;DHT22;31888;44.512;26.104;2023-11-19T14:38:50;8.60;93.00
46159;DHT22;31888;44.512;26.104;2023-11-19T14:41:14;8.50;93.50
46159;DHT22;31888;44.512;26.104;2023-11-19T14:43:39;8.40;93.80
46159;DHT22;31888;44.512;26.104;2023-11-19T14:46:05;8.30;94.30
46159;DHT22;31888;44.512;26.104;2023-11-19T14:48:29;8.20;94.90
46159;DHT22;31888;44.512;26.104;2023-11-19T14:50:53;8.10;95.40
46159;DHT22;31888;44.512;26.104;2023-11-19T14:53:17;8.00;95.80
46159;DHT22;31888;44.512;26.104;2023-11-19T14:55:42;7.90;96.50
46159;DHT22;31888;44.512;26.104;2023-11-19T14:58:06;7.80;97.10
46159;DHT22;31888;44.512;26.104;2023-11-19T15:00:34;7.70;97.50
46159;DHT22;31888;44.512;26.104;2023-11-19T15:02:59;7.70;98.00
46159;DHT22;31888;44.512;26.104;2023-11-19T15:05:24;7.60;99.00
46159;DHT22;31888;44.512;26.104;2023-11-19T15:07:50;7.60;99.60
46159;DHT22;31888;44.512;26.104;2023-11-19T15:10:15;7.60;99.90
46159;DHT22;31888;44.512;26.104;2023-11-19T15:12:39;7.60;99.90
46159;DHT22;31888;44.512;26.104;2023-11-19T15:15:06;7.60;99.90
46159;DHT22;31888;44.512;26.104;2023-11-19T15:17:30;7.60;99.90